createdAt,value
2023-04-09T00:02:27.313Z,25.25
2023-04-09T00:08:19.001Z,25.16
2023-04-09T00:13:39.214Z,25.10
2023-04-09T00:18:40.292Z,24.99
2023-04-09T00:23:47.895Z,24.93
2023-04-09T00:29:00.448Z,24.80
2023-04-09T00:34:19.197Z,24.69
2023-04-09T00:40:06.413Z,24.57
2023-04-09T00:45:14.134Z,24.50
2023-04-09T00:50:26.611Z,24.42
2023-04-09T00:55:34.193Z,24.32
2023-04-09T01:01:03.133Z,24.21
2023-04-09T01:06:01.046Z,24.15
2023-04-09T01:11:10.828Z,24.01
2023-04-09T01:16:21.745Z,23.86
2023-04-09T01:21:29.746Z,23.82
2023-04-09T01:26:54.962Z,23.79
2023-04-09T01:32:35.528Z,23.70
2023-04-09T01:38:21.700Z,23.61
2023-04-09T01:43:33.639Z,23.49
2023-04-09T01:48:44.266Z,23.31
2023-04-09T01:53:52.089Z,23.14
2023-04-09T01:59:05.462Z,23.01
2023-04-09T02:04:17.758Z,22.81
2023-04-09T02:09:25.220Z,22.63
2023-04-09T02:14:32.602Z,22.54
2023-04-09T02:19:40.061Z,22.43
2023-04-09T02:24:47.471Z,22.36
2023-04-09T02:29:54.941Z,22.21
2023-04-09T02:35:02.368Z,22.11
2023-04-09T02:40:09.622Z,21.98
2023-04-09T02:45:16.830Z,21.85
2023-04-09T02:50:23.990Z,21.77
2023-04-09T02:55:31.210Z,21.67
2023-04-09T03:00:38.381Z,21.64
2023-04-09T03:05:45.597Z,21.55
2023-04-09T03:10:52.881Z,21.52
2023-04-09T03:16:00.160Z,21.44
2023-04-09T03:21:07.392Z,21.40
2023-04-09T03:26:14.787Z,21.39
2023-04-09T03:31:31.181Z,21.38
2023-04-09T03:36:38.704Z,21.38
2023-04-09T03:41:46.122Z,21.33
2023-04-09T03:46:53.669Z,21.33
2023-04-09T03:52:00.996Z,21.29
2023-04-09T03:57:08.334Z,21.28
2023-04-09T04:02:15.681Z,21.35
2023-04-09T04:07:22.862Z,21.37
2023-04-09T04:12:30.257Z,21.35
2023-04-09T04:17:37.560Z,21.31
2023-04-09T04:22:50.999Z,21.35
2023-04-09T04:27:58.406Z,21.32
2023-04-09T04:33:05.898Z,21.34
2023-04-09T04:38:13.453Z,21.30
2023-04-09T04:43:21.086Z,21.29
2023-04-09T04:48:28.494Z,21.28
2023-04-09T04:53:35.823Z,21.27
2023-04-09T04:58:43.271Z,21.25
2023-04-09T05:03:53.847Z,21.22
2023-04-09T05:09:07.558Z,21.16
2023-04-09T05:14:13.226Z,21.13
2023-04-09T05:19:20.057Z,21.05
2023-04-09T05:24:33.844Z,20.86
2023-04-09T05:29:41.316Z,20.62
2023-04-09T05:34:48.938Z,20.55
2023-04-09T05:39:56.444Z,20.55
2023-04-09T05:45:03.787Z,20.45
2023-04-09T05:50:11.036Z,20.36
2023-04-09T05:55:18.535Z,20.30
2023-04-09T06:00:26.394Z,20.20
2023-04-09T06:05:34.296Z,20.16
2023-04-09T06:10:41.695Z,20.41
2023-04-09T06:15:48.981Z,20.78
2023-04-09T06:20:56.103Z,20.99
2023-04-09T06:26:03.292Z,21.18
2023-04-09T06:31:10.656Z,21.35
2023-04-09T06:36:17.655Z,21.51
2023-04-09T06:41:24.848Z,21.66
2023-04-09T06:46:32.096Z,21.82
2023-04-09T06:51:39.211Z,21.96
2023-04-09T06:56:46.778Z,22.12
2023-04-09T07:01:54.708Z,22.23
2023-04-09T07:07:00.891Z,22.34
2023-04-09T07:12:08.066Z,22.46
2023-04-09T07:17:15.251Z,22.58
2023-04-09T07:22:22.448Z,22.68
2023-04-09T07:27:29.640Z,22.77
2023-04-09T07:32:37.006Z,22.87
2023-04-09T07:37:44.214Z,22.95
2023-04-09T07:42:51.392Z,23.03
2023-04-09T07:47:58.724Z,23.10
2023-04-09T07:53:05.834Z,23.20
2023-04-09T07:58:13.121Z,23.26
2023-04-09T08:03:20.603Z,23.35
2023-04-09T08:08:27.495Z,23.38
2023-04-09T08:13:34.698Z,23.50
2023-04-09T08:18:42.004Z,23.53
2023-04-09T08:23:49.268Z,23.55
2023-04-09T08:28:56.462Z,23.62
2023-04-09T08:34:03.779Z,23.69
2023-04-09T08:39:10.999Z,23.68
2023-04-09T08:44:18.240Z,23.73
2023-04-09T08:49:25.533Z,23.73
2023-04-09T08:54:32.778Z,23.76
2023-04-09T08:59:39.960Z,23.77
2023-04-09T09:04:47.171Z,23.75
2023-04-09T09:09:54.317Z,23.72
2023-04-09T09:15:01.513Z,23.66
2023-04-09T09:20:08.714Z,23.60
2023-04-09T09:25:15.868Z,23.55
2023-04-09T09:30:23.081Z,23.47
2023-04-09T09:35:30.265Z,23.36
2023-04-09T09:40:37.428Z,23.21
2023-04-09T09:45:44.702Z,23.16
2023-04-09T09:50:51.825Z,23.17
2023-04-09T09:55:58.976Z,23.01
2023-04-09T10:01:06.176Z,22.88
2023-04-09T10:06:13.369Z,22.76
2023-04-09T10:11:20.541Z,22.56
2023-04-09T10:16:27.885Z,22.63
2023-04-09T10:21:35.060Z,22.76
2023-04-09T10:26:42.189Z,22.64
2023-04-09T10:31:49.365Z,22.24
2023-04-09T10:36:56.642Z,22.28
2023-04-09T10:42:03.758Z,22.39
2023-04-09T10:47:11.296Z,22.11
2023-04-09T10:52:18.975Z,22.29
2023-04-09T10:57:26.005Z,22.07
2023-04-09T11:02:33.267Z,22.16
2023-04-09T11:07:40.466Z,22.07
2023-04-09T11:12:47.555Z,21.73
2023-04-09T11:17:54.821Z,21.49
2023-04-09T11:23:01.949Z,21.66
2023-04-09T11:28:09.115Z,21.74
2023-04-09T11:33:19.086Z,21.45
2023-04-09T11:38:23.547Z,21.55
2023-04-09T11:43:30.656Z,21.58
2023-04-09T11:48:37.891Z,21.49
2023-04-09T11:53:45.097Z,21.45
2023-04-09T11:58:52.537Z,21.06
2023-04-09T12:03:59.798Z,21.31
2023-04-09T12:09:06.711Z,21.53
2023-04-09T12:14:13.930Z,20.78
2023-04-09T12:19:21.235Z,20.81
2023-04-09T12:24:28.479Z,21.03
2023-04-09T12:29:35.677Z,21.39
2023-04-09T12:34:42.835Z,21.04
2023-04-09T12:39:50.030Z,20.78
2023-04-09T12:44:57.170Z,21.08
2023-04-09T12:50:04.366Z,20.85
2023-04-09T12:55:11.599Z,20.63
2023-04-09T13:00:18.763Z,20.50
2023-04-09T13:05:25.923Z,20.64
2023-04-09T13:10:33.144Z,20.53
2023-04-09T13:15:40.347Z,20.44
2023-04-09T13:20:47.617Z,20.15
2023-04-09T13:25:54.781Z,20.51
2023-04-09T13:31:02.007Z,20.75
2023-04-09T13:36:09.189Z,20.83
2023-04-09T13:41:16.462Z,20.59
2023-04-09T13:46:23.673Z,20.58
2023-04-09T13:51:30.823Z,20.64
2023-04-09T13:56:38.004Z,20.50
2023-04-09T14:01:45.339Z,20.61
2023-04-09T14:06:52.362Z,20.48
2023-04-09T14:11:59.576Z,20.60
2023-04-09T14:17:06.839Z,20.45
2023-04-09T14:22:14.015Z,20.81
2023-04-09T14:27:21.225Z,20.75
2023-04-09T14:32:28.457Z,20.83
2023-04-09T14:37:35.577Z,20.80
2023-04-09T14:42:42.780Z,20.74
2023-04-09T14:47:50.058Z,20.80
2023-04-09T14:52:57.244Z,20.74
2023-04-09T14:58:04.637Z,20.48
2023-04-09T15:03:12.060Z,20.50
2023-04-09T15:08:19.009Z,20.12
2023-04-09T15:13:26.225Z,20.69
2023-04-09T15:18:33.364Z,20.99
2023-04-09T15:23:40.550Z,21.20
2023-04-09T15:28:47.797Z,21.36
2023-04-09T15:33:54.969Z,21.54
2023-04-09T15:39:02.170Z,21.72
2023-04-09T15:44:09.384Z,21.84
2023-04-09T15:49:16.569Z,21.90
2023-04-09T15:54:23.733Z,21.98
2023-04-09T15:59:30.956Z,22.06
2023-04-09T16:04:38.202Z,22.14
2023-04-09T16:09:45.300Z,22.27
2023-04-09T16:14:52.520Z,22.37
2023-04-09T16:19:59.709Z,22.46
2023-04-09T16:25:07.066Z,22.51
2023-04-09T16:30:14.298Z,22.62
2023-04-09T16:35:21.421Z,22.77
2023-04-09T16:40:28.594Z,22.87
2023-04-09T16:45:36.157Z,22.98
2023-04-09T16:50:43.284Z,23.09
2023-04-09T16:55:50.573Z,23.17
2023-04-09T17:00:57.813Z,23.26
2023-04-09T17:06:05.237Z,23.34
2023-04-09T17:11:12.527Z,23.41
2023-04-09T17:16:19.865Z,23.55
2023-04-09T17:21:26.982Z,23.65
2023-04-09T17:26:34.203Z,23.69
2023-04-09T17:31:41.372Z,23.75
2023-04-09T17:36:48.521Z,23.90
2023-04-09T17:41:57.128Z,23.96
2023-04-09T17:47:04.337Z,24.02
2023-04-09T17:52:11.506Z,24.04
2023-04-09T17:57:18.729Z,24.05
2023-04-09T18:02:26.220Z,24.12
2023-04-09T18:07:33.068Z,24.32
2023-04-09T18:12:40.270Z,24.50
2023-04-09T18:17:47.713Z,24.57
2023-04-09T18:22:55.038Z,24.75
2023-04-09T18:28:02.311Z,24.88
2023-04-09T18:33:09.517Z,24.98
2023-04-09T18:38:16.907Z,25.12
2023-04-09T18:43:24.249Z,25.17
2023-04-09T18:48:31.541Z,25.21
2023-04-09T18:53:38.730Z,25.27
2023-04-09T18:58:46.025Z,25.23
2023-04-09T19:03:53.442Z,25.33
2023-04-09T19:09:00.385Z,25.39
2023-04-09T19:14:07.675Z,25.45
2023-04-09T19:19:14.885Z,25.50
2023-04-09T19:24:22.053Z,25.57
2023-04-09T19:29:29.337Z,25.62
2023-04-09T19:34:36.772Z,25.65
2023-04-09T19:39:43.895Z,25.67
2023-04-09T19:44:51.131Z,25.75
2023-04-09T19:49:58.417Z,25.78
2023-04-09T19:55:05.572Z,25.81
2023-04-09T20:00:12.891Z,25.83
2023-04-09T20:05:20.175Z,25.82
2023-04-09T20:10:27.409Z,25.92
2023-04-09T20:15:34.613Z,25.96
2023-04-09T20:20:41.804Z,26.01
2023-04-09T20:25:49.066Z,26.02
2023-04-09T20:30:56.268Z,25.95
2023-04-09T20:36:03.511Z,26.01
2023-04-09T20:41:10.620Z,25.96
2023-04-09T20:46:17.893Z,26.07
2023-04-09T20:51:25.115Z,26.17
2023-04-09T20:56:32.383Z,26.13
2023-04-09T21:01:39.693Z,26.21
2023-04-09T21:06:46.789Z,26.20
2023-04-09T21:11:53.968Z,26.21
2023-04-09T21:17:01.325Z,26.27
2023-04-09T21:22:08.441Z,26.28
2023-04-09T21:27:15.585Z,26.33
2023-04-09T21:32:22.806Z,26.33
2023-04-09T21:37:29.979Z,26.32
2023-04-09T21:42:37.151Z,26.39
2023-04-09T21:47:44.481Z,26.40
2023-04-09T21:52:51.652Z,26.45
2023-04-09T21:57:58.874Z,26.50
2023-04-09T22:03:06.208Z,26.52
2023-04-09T22:08:13.316Z,26.55
2023-04-09T22:13:20.467Z,26.56
2023-04-09T22:18:27.653Z,26.61
2023-04-09T22:23:34.970Z,26.58
2023-04-09T22:28:42.150Z,26.57
2023-04-09T22:33:49.412Z,26.53
2023-04-09T22:38:56.616Z,26.46
2023-04-09T22:44:03.767Z,26.42
2023-04-09T22:49:11.380Z,26.42
2023-04-09T22:54:18.285Z,26.42
2023-04-09T22:59:33.759Z,26.48
2023-04-09T23:04:32.638Z,26.50
2023-04-09T23:09:40.098Z,26.46
2023-04-09T23:14:56.797Z,26.45
2023-04-09T23:20:44.208Z,26.33
2023-04-09T23:26:00.937Z,26.20
2023-04-09T23:31:43.539Z,25.98
2023-04-09T23:37:30.816Z,25.82
2023-04-09T23:43:13.544Z,25.63
2023-04-09T23:48:59.897Z,25.45
2023-04-09T23:54:42.349Z,25.23
